sensor_id;sensor_type;location;lat;lon;timestamp;P1;durP1;ratioP1;P2;durP2;ratioP2
54452;SDS011;40363;52.270;10.546;2023-02-01T00:00:30;10.38;;;2.88;;
54452;SDS011;40363;52.270;10.546;2023-02-01T00:02:58;9.13;;;2.08;;
54452;SDS011;40363;52.270;10.546;2023-02-01T00:05:24;27.10;;;2.55;;
54452;SDS011;40363;52.270;10.546;2023-02-01T00:07:51;7.15;;;2.15;;
54452;SDS011;40363;52.270;10.546;2023-02-01T00:10:18;7.22;;;1.85;;
54452;SDS011;40363;52.270;10.546;2023-02-01T00:12:45;5.90;;;1.48;;
54452;SDS011;40363;52.270;10.546;2023-02-01T00:15:13;11.77;;;2.05;;
54452;SDS011;40363;52.270;10.546;2023-02-01T00:17:40;12.07;;;2.00;;
54452;SDS011;40363;52.270;10.546;2023-02-01T00:20:07;10.25;;;1.67;;
54452;SDS011;40363;52.270;10.546;2023-02-01T00:22:35;10.90;;;2.78;;
54452;SDS011;40363;52.270;10.546;2023-02-01T00:25:01;9.43;;;1.60;;
54452;SDS011;40363;52.270;10.546;2023-02-01T00:27:28;16.80;;;2.45;;
54452;SDS011;40363;52.270;10.546;2023-02-01T00:29:55;8.25;;;2.08;;
54452;SDS011;40363;52.270;10.546;2023-02-01T00:32:23;12.15;;;2.42;;
54452;SDS011;40363;52.270;10.546;2023-02-01T00:34:49;14.75;;;1.92;;
54452;SDS011;40363;52.270;10.546;2023-02-01T00:37:16;8.65;;;2.03;;
54452;SDS011;40363;52.270;10.546;2023-02-01T00:39:43;9.82;;;1.92;;
54452;SDS011;40363;52.270;10.546;2023-02-01T00:42:09;11.15;;;2.03;;
54452;SDS011;40363;52.270;10.546;2023-02-01T00:44:36;14.15;;;2.28;;
54452;SDS011;40363;52.270;10.546;2023-02-01T00:47:03;6.47;;;1.65;;
54452;SDS011;40363;52.270;10.546;2023-02-01T00:49:31;12.48;;;2.58;;
54452;SDS011;40363;52.270;10.546;2023-02-01T00:51:57;9.18;;;2.38;;
54452;SDS011;40363;52.270;10.546;2023-02-01T00:54:24;9.10;;;1.83;;
54452;SDS011;40363;52.270;10.546;2023-02-01T00:56:50;8.13;;;1.88;;
54452;SDS011;40363;52.270;10.546;2023-02-01T00:59:17;10.02;;;2.15;;
54452;SDS011;40363;52.270;10.546;2023-02-01T01:01:44;12.32;;;1.95;;
54452;SDS011;40363;52.270;10.546;2023-02-01T01:04:11;11.52;;;2.28;;
54452;SDS011;40363;52.270;10.546;2023-02-01T01:06:39;11.45;;;3.05;;
54452;SDS011;40363;52.270;10.546;2023-02-01T01:09:06;15.38;;;1.60;;
54452;SDS011;40363;52.270;10.546;2023-02-01T01:11:34;8.32;;;1.95;;
54452;SDS011;40363;52.270;10.546;2023-02-01T01:14:02;6.07;;;1.23;;
54452;SDS011;40363;52.270;10.546;2023-02-01T01:16:30;13.00;;;2.03;;
54452;SDS011;40363;52.270;10.546;2023-02-01T01:18:58;7.28;;;1.77;;
54452;SDS011;40363;52.270;10.546;2023-02-01T01:21:25;11.63;;;2.78;;
54452;SDS011;40363;52.270;10.546;2023-02-01T01:23:54;9.23;;;1.70;;
54452;SDS011;40363;52.270;10.546;2023-02-01T01:26:21;15.93;;;2.30;;
54452;SDS011;40363;52.270;10.546;2023-02-01T01:28:49;6.70;;;1.67;;
54452;SDS011;40363;52.270;10.546;2023-02-01T01:31:16;9.13;;;2.10;;
54452;SDS011;40363;52.270;10.546;2023-02-01T01:33:47;5.15;;;1.88;;
54452;SDS011;40363;52.270;10.546;2023-02-01T01:36:14;15.35;;;2.75;;
54452;SDS011;40363;52.270;10.546;2023-02-01T01:38:41;10.27;;;2.42;;
54452;SDS011;40363;52.270;10.546;2023-02-01T01:41:11;5.72;;;1.45;;
54452;SDS011;40363;52.270;10.546;2023-02-01T01:43:45;10.75;;;2.00;;
54452;SDS011;40363;52.270;10.546;2023-02-01T01:46:15;10.25;;;1.80;;
54452;SDS011;40363;52.270;10.546;2023-02-01T01:48:42;15.38;;;2.97;;
54452;SDS011;40363;52.270;10.546;2023-02-01T01:51:10;14.75;;;1.65;;
54452;SDS011;40363;52.270;10.546;2023-02-01T01:53:42;14.13;;;2.10;;
54452;SDS011;40363;52.270;10.546;2023-02-01T01:56:12;11.20;;;2.65;;
54452;SDS011;40363;52.270;10.546;2023-02-01T01:58:39;7.93;;;1.27;;
54452;SDS011;40363;52.270;10.546;2023-02-01T02:01:07;6.53;;;1.85;;
54452;SDS011;40363;52.270;10.546;2023-02-01T02:03:34;14.30;;;1.90;;
54452;SDS011;40363;52.270;10.546;2023-02-01T02:06:05;14.77;;;4.70;;
54452;SDS011;40363;52.270;10.546;2023-02-01T02:08:41;11.63;;;2.85;;
54452;SDS011;40363;52.270;10.546;2023-02-01T02:11:08;12.85;;;1.90;;
54452;SDS011;40363;52.270;10.546;2023-02-01T02:13:39;10.10;;;2.00;;
54452;SDS011;40363;52.270;10.546;2023-02-01T02:16:13;12.48;;;2.80;;
54452;SDS011;40363;52.270;10.546;2023-02-01T02:18:54;9.75;;;2.17;;
54452;SDS011;40363;52.270;10.546;2023-02-01T02:21:36;9.95;;;2.63;;
54452;SDS011;40363;52.270;10.546;2023-02-01T02:24:21;9.63;;;1.95;;
54452;SDS011;40363;52.270;10.546;2023-02-01T02:36:06;13.10;;;1.85;;
54452;SDS011;40363;52.270;10.546;2023-02-01T02:38:41;10.90;;;2.17;;
54452;SDS011;40363;52.270;10.546;2023-02-01T02:41:15;7.13;;;1.65;;
54452;SDS011;40363;52.270;10.546;2023-02-01T02:43:59;19.85;;;2.83;;
54452;SDS011;40363;52.270;10.546;2023-02-01T02:46:50;15.40;;;3.00;;
54452;SDS011;40363;52.270;10.546;2023-02-01T02:49:39;14.75;;;2.05;;
54452;SDS011;40363;52.270;10.546;2023-02-01T02:52:33;14.48;;;2.22;;
54452;SDS011;40363;52.270;10.546;2023-02-01T02:55:22;6.53;;;1.60;;
54452;SDS011;40363;52.270;10.546;2023-02-01T02:57:51;8.70;;;1.83;;
54452;SDS011;40363;52.270;10.546;2023-02-01T03:00:35;9.55;;;2.75;;
54452;SDS011;40363;52.270;10.546;2023-02-01T03:03:20;13.02;;;2.75;;
54452;SDS011;40363;52.270;10.546;2023-02-01T03:06:07;14.40;;;1.55;;
54452;SDS011;40363;52.270;10.546;2023-02-01T03:08:41;8.45;;;2.17;;
54452;SDS011;40363;52.270;10.546;2023-02-01T03:11:10;9.32;;;1.60;;
54452;SDS011;40363;52.270;10.546;2023-02-01T03:13:40;15.60;;;3.92;;
54452;SDS011;40363;52.270;10.546;2023-02-01T03:16:12;12.13;;;2.97;;
54452;SDS011;40363;52.270;10.546;2023-02-01T03:18:44;9.45;;;2.40;;
54452;SDS011;40363;52.270;10.546;2023-02-01T03:21:16;16.40;;;1.95;;
54452;SDS011;40363;52.270;10.546;2023-02-01T03:23:47;12.00;;;2.53;;
54452;SDS011;40363;52.270;10.546;2023-02-01T03:26:18;12.18;;;2.20;;
54452;SDS011;40363;52.270;10.546;2023-02-01T03:28:49;15.50;;;2.65;;
54452;SDS011;40363;52.270;10.546;2023-02-01T03:31:21;11.52;;;2.60;;
54452;SDS011;40363;52.270;10.546;2023-02-01T03:33:49;16.42;;;2.42;;
54452;SDS011;40363;52.270;10.546;2023-02-01T03:36:18;12.80;;;2.72;;
54452;SDS011;40363;52.270;10.546;2023-02-01T03:38:50;15.27;;;3.60;;
54452;SDS011;40363;52.270;10.546;2023-02-01T03:41:23;9.82;;;2.63;;
54452;SDS011;40363;52.270;10.546;2023-02-01T03:43:55;12.70;;;2.17;;
54452;SDS011;40363;52.270;10.546;2023-02-01T03:46:26;9.40;;;2.58;;
54452;SDS011;40363;52.270;10.546;2023-02-01T03:48:59;13.85;;;3.30;;
54452;SDS011;40363;52.270;10.546;2023-02-01T03:51:28;10.35;;;2.22;;
54452;SDS011;40363;52.270;10.546;2023-02-01T03:53:57;10.30;;;2.42;;
54452;SDS011;40363;52.270;10.546;2023-02-01T03:56:27;10.55;;;3.13;;
54452;SDS011;40363;52.270;10.546;2023-02-01T03:58:56;9.32;;;2.63;;
54452;SDS011;40363;52.270;10.546;2023-02-01T04:01:27;10.50;;;2.45;;
54452;SDS011;40363;52.270;10.546;2023-02-01T04:03:55;9.52;;;1.95;;
54452;SDS011;40363;52.270;10.546;2023-02-01T04:06:21;9.13;;;2.50;;
54452;SDS011;40363;52.270;10.546;2023-02-01T04:08:48;10.88;;;3.65;;
54452;SDS011;40363;52.270;10.546;2023-02-01T04:11:18;9.23;;;2.88;;
54452;SDS011;40363;52.270;10.546;2023-02-01T04:13:44;21.60;;;2.38;;
54452;SDS011;40363;52.270;10.546;2023-02-01T04:16:11;9.70;;;2.30;;
54452;SDS011;40363;52.270;10.546;2023-02-01T04:18:38;12.32;;;2.92;;
54452;SDS011;40363;52.270;10.546;2023-02-01T04:21:04;10.45;;;2.28;;
54452;SDS011;40363;52.270;10.546;2023-02-01T04:23:31;12.13;;;2.97;;
54452;SDS011;40363;52.270;10.546;2023-02-01T04:25:58;13.80;;;3.05;;
54452;SDS011;40363;52.270;10.546;2023-02-01T04:28:27;12.70;;;2.97;;
54452;SDS011;40363;52.270;10.546;2023-02-01T04:30:54;11.75;;;3.22;;
54452;SDS011;40363;52.270;10.546;2023-02-01T04:33:21;8.80;;;3.83;;
54452;SDS011;40363;52.270;10.546;2023-02-01T04:35:48;11.30;;;3.47;;
54452;SDS011;40363;52.270;10.546;2023-02-01T04:38:14;11.18;;;2.90;;
54452;SDS011;40363;52.270;10.546;2023-02-01T04:40:41;11.75;;;2.80;;
54452;SDS011;40363;52.270;10.546;2023-02-01T04:43:08;9.48;;;2.83;;
54452;SDS011;40363;52.270;10.546;2023-02-01T04:45:36;14.30;;;3.85;;
54452;SDS011;40363;52.270;10.546;2023-02-01T04:48:03;8.38;;;2.25;;
54452;SDS011;40363;52.270;10.546;2023-02-01T04:50:30;11.48;;;2.97;;
54452;SDS011;40363;52.270;10.546;2023-02-01T04:52:56;8.50;;;1.95;;
54452;SDS011;40363;52.270;10.546;2023-02-01T04:55:23;13.90;;;2.42;;
54452;SDS011;40363;52.270;10.546;2023-02-01T04:57:50;12.20;;;2.35;;
54452;SDS011;40363;52.270;10.546;2023-02-01T05:00:17;9.75;;;3.85;;
54452;SDS011;40363;52.270;10.546;2023-02-01T05:02:45;16.40;;;3.28;;
54452;SDS011;40363;52.270;10.546;2023-02-01T05:05:12;14.85;;;2.88;;
54452;SDS011;40363;52.270;10.546;2023-02-01T05:07:39;6.68;;;2.40;;
54452;SDS011;40363;52.270;10.546;2023-02-01T05:10:06;12.35;;;3.47;;
54452;SDS011;40363;52.270;10.546;2023-02-01T05:12:33;10.98;;;2.70;;
54452;SDS011;40363;52.270;10.546;2023-02-01T05:15:17;9.10;;;3.08;;
54452;SDS011;40363;52.270;10.546;2023-02-01T05:17:44;13.15;;;2.65;;
54452;SDS011;40363;52.270;10.546;2023-02-01T05:20:12;14.88;;;3.78;;
54452;SDS011;40363;52.270;10.546;2023-02-01T05:22:38;7.82;;;2.25;;
54452;SDS011;40363;52.270;10.546;2023-02-01T05:25:05;16.77;;;3.38;;
54452;SDS011;40363;52.270;10.546;2023-02-01T05:27:32;12.88;;;2.97;;
54452;SDS011;40363;52.270;10.546;2023-02-01T05:29:59;11.15;;;2.28;;
54452;SDS011;40363;52.270;10.546;2023-02-01T05:32:25;8.02;;;3.00;;
54452;SDS011;40363;52.270;10.546;2023-02-01T05:34:55;11.85;;;2.97;;
54452;SDS011;40363;52.270;10.546;2023-02-01T05:37:21;13.10;;;3.35;;
54452;SDS011;40363;52.270;10.546;2023-02-01T05:39:48;10.20;;;4.10;;
54452;SDS011;40363;52.270;10.546;2023-02-01T05:42:15;12.10;;;3.67;;
54452;SDS011;40363;52.270;10.546;2023-02-01T05:44:41;9.10;;;3.10;;
54452;SDS011;40363;52.270;10.546;2023-02-01T05:47:08;13.57;;;3.13;;
54452;SDS011;40363;52.270;10.546;2023-02-01T05:49:35;9.85;;;3.00;;
54452;SDS011;40363;52.270;10.546;2023-02-01T05:52:03;5.55;;;2.67;;
54452;SDS011;40363;52.270;10.546;2023-02-01T05:54:30;8.48;;;2.80;;
54452;SDS011;40363;52.270;10.546;2023-02-01T05:56:57;8.18;;;2.80;;
54452;SDS011;40363;52.270;10.546;2023-02-01T05:59:23;11.68;;;3.05;;
54452;SDS011;40363;52.270;10.546;2023-02-01T06:01:50;9.02;;;3.33;;
54452;SDS011;40363;52.270;10.546;2023-02-01T06:04:16;11.23;;;2.90;;
54452;SDS011;40363;52.270;10.546;2023-02-01T06:06:43;10.20;;;3.67;;
54452;SDS011;40363;52.270;10.546;2023-02-01T06:09:11;15.13;;;3.72;;
54452;SDS011;40363;52.270;10.546;2023-02-01T06:11:38;10.90;;;2.90;;
54452;SDS011;40363;52.270;10.546;2023-02-01T06:14:06;8.13;;;2.70;;
54452;SDS011;40363;52.270;10.546;2023-02-01T06:16:33;10.73;;;3.10;;
54452;SDS011;40363;52.270;10.546;2023-02-01T06:19:00;11.93;;;5.70;;
54452;SDS011;40363;52.270;10.546;2023-02-01T06:21:26;16.65;;;3.90;;
54452;SDS011;40363;52.270;10.546;2023-02-01T06:23:53;13.43;;;3.25;;
54452;SDS011;40363;52.270;10.546;2023-02-01T06:26:23;10.10;;;2.30;;
54452;SDS011;40363;52.270;10.546;2023-02-01T06:28:51;13.52;;;3.70;;
54452;SDS011;40363;52.270;10.546;2023-02-01T06:31:17;6.47;;;2.17;;
54452;SDS011;40363;52.270;10.546;2023-02-01T06:33:44;10.90;;;3.55;;
54452;SDS011;40363;52.270;10.546;2023-02-01T06:36:11;11.93;;;2.88;;
54452;SDS011;40363;52.270;10.546;2023-02-01T06:38:38;8.38;;;3.13;;
54452;SDS011;40363;52.270;10.546;2023-02-01T06:41:05;6.63;;;3.22;;
54452;SDS011;40363;52.270;10.546;2023-02-01T06:43:33;8.30;;;2.85;;
54452;SDS011;40363;52.270;10.546;2023-02-01T06:46:00;8.70;;;3.05;;
54452;SDS011;40363;52.270;10.546;2023-02-01T06:48:27;8.40;;;2.50;;
54452;SDS011;40363;52.270;10.546;2023-02-01T06:50:54;8.52;;;2.92;;
54452;SDS011;40363;52.270;10.546;2023-02-01T06:53:21;11.98;;;3.00;;
54452;SDS011;40363;52.270;10.546;2023-02-01T06:55:51;14.50;;;3.60;;
54452;SDS011;40363;52.270;10.546;2023-02-01T06:58:18;9.30;;;2.80;;
54452;SDS011;40363;52.270;10.546;2023-02-01T07:00:46;7.55;;;2.20;;
54452;SDS011;40363;52.270;10.546;2023-02-01T07:03:13;6.15;;;2.47;;
54452;SDS011;40363;52.270;10.546;2023-02-01T07:05:40;9.32;;;2.40;;
54452;SDS011;40363;52.270;10.546;2023-02-01T07:08:06;8.00;;;2.30;;
54452;SDS011;40363;52.270;10.546;2023-02-01T07:10:33;12.52;;;3.03;;
54452;SDS011;40363;52.270;10.546;2023-02-01T07:13:00;7.72;;;3.03;;
54452;SDS011;40363;52.270;10.546;2023-02-01T07:15:27;8.88;;;1.60;;
54452;SDS011;40363;52.270;10.546;2023-02-01T07:17:55;10.30;;;1.92;;
54452;SDS011;40363;52.270;10.546;2023-02-01T07:20:22;11.45;;;2.50;;
54452;SDS011;40363;52.270;10.546;2023-02-01T07:22:49;12.82;;;2.67;;
54452;SDS011;40363;52.270;10.546;2023-02-01T07:25:21;2.60;;;1.80;;
54452;SDS011;40363;52.270;10.546;2023-02-01T07:27:47;6.97;;;1.88;;
54452;SDS011;40363;52.270;10.546;2023-02-01T07:30:14;7.22;;;2.35;;
54452;SDS011;40363;52.270;10.546;2023-02-01T07:32:41;8.05;;;2.40;;
54452;SDS011;40363;52.270;10.546;2023-02-01T07:35:09;7.38;;;2.00;;
54452;SDS011;40363;52.270;10.546;2023-02-01T07:37:35;6.00;;;1.98;;
54452;SDS011;40363;52.270;10.546;2023-02-01T07:40:02;9.95;;;2.03;;
54452;SDS011;40363;52.270;10.546;2023-02-01T07:42:29;5.22;;;3.30;;
54452;SDS011;40363;52.270;10.546;2023-02-01T07:44:56;9.27;;;2.17;;
54452;SDS011;40363;52.270;10.546;2023-02-01T07:47:22;6.55;;;2.30;;
54452;SDS011;40363;52.270;10.546;2023-02-01T07:49:49;8.38;;;1.85;;
54452;SDS011;40363;52.270;10.546;2023-02-01T07:52:17;11.55;;;2.33;;
54452;SDS011;40363;52.270;10.546;2023-02-01T07:54:43;5.93;;;2.15;;
54452;SDS011;40363;52.270;10.546;2023-02-01T07:57:10;9.27;;;1.73;;
54452;SDS011;40363;52.270;10.546;2023-02-01T07:59:38;5.03;;;1.80;;
54452;SDS011;40363;52.270;10.546;2023-02-01T08:02:25;6.25;;;1.80;;
54452;SDS011;40363;52.270;10.546;2023-02-01T08:04:50;9.27;;;1.73;;
54452;SDS011;40363;52.270;10.546;2023-02-01T08:07:18;8.38;;;2.35;;
54452;SDS011;40363;52.270;10.546;2023-02-01T08:09:45;7.15;;;1.77;;
54452;SDS011;40363;52.270;10.546;2023-02-01T08:12:12;8.98;;;2.55;;
54452;SDS011;40363;52.270;10.546;2023-02-01T08:14:38;12.55;;;2.30;;
54452;SDS011;40363;52.270;10.546;2023-02-01T08:17:06;13.95;;;2.70;;
54452;SDS011;40363;52.270;10.546;2023-02-01T08:19:32;12.63;;;2.88;;
54452;SDS011;40363;52.270;10.546;2023-02-01T08:21:59;4.88;;;2.00;;
54452;SDS011;40363;52.270;10.546;2023-02-01T08:24:32;9.18;;;2.38;;
54452;SDS011;40363;52.270;10.546;2023-02-01T08:27:00;10.30;;;2.58;;
54452;SDS011;40363;52.270;10.546;2023-02-01T08:29:27;14.75;;;3.28;;
54452;SDS011;40363;52.270;10.546;2023-02-01T08:31:54;11.07;;;2.13;;
54452;SDS011;40363;52.270;10.546;2023-02-01T08:34:20;9.85;;;3.45;;
54452;SDS011;40363;52.270;10.546;2023-02-01T08:36:47;8.35;;;2.15;;
54452;SDS011;40363;52.270;10.546;2023-02-01T08:39:14;12.48;;;2.03;;
54452;SDS011;40363;52.270;10.546;2023-02-01T08:41:42;6.50;;;2.20;;
54452;SDS011;40363;52.270;10.546;2023-02-01T08:44:28;16.77;;;3.75;;
54452;SDS011;40363;52.270;10.546;2023-02-01T08:46:55;12.27;;;2.83;;
54452;SDS011;40363;52.270;10.546;2023-02-01T08:49:21;9.55;;;2.47;;
54452;SDS011;40363;52.270;10.546;2023-02-01T08:51:48;14.18;;;2.85;;
54452;SDS011;40363;52.270;10.546;2023-02-01T08:54:15;9.88;;;2.10;;
54452;SDS011;40363;52.270;10.546;2023-02-01T08:56:42;7.80;;;3.03;;
54452;SDS011;40363;52.270;10.546;2023-02-01T08:59:09;12.35;;;2.92;;
54452;SDS011;40363;52.270;10.546;2023-02-01T09:01:36;11.02;;;2.50;;
54452;SDS011;40363;52.270;10.546;2023-02-01T09:04:02;9.68;;;2.25;;
54452;SDS011;40363;52.270;10.546;2023-02-01T09:06:29;10.60;;;2.35;;
54452;SDS011;40363;52.270;10.546;2023-02-01T09:08:56;11.77;;;2.20;;
54452;SDS011;40363;52.270;10.546;2023-02-01T09:11:22;3.60;;;1.70;;
54452;SDS011;40363;52.270;10.546;2023-02-01T09:13:50;9.27;;;1.77;;
54452;SDS011;40363;52.270;10.546;2023-02-01T09:16:17;7.07;;;1.85;;
54452;SDS011;40363;52.270;10.546;2023-02-01T09:18:43;6.03;;;2.28;;
54452;SDS011;40363;52.270;10.546;2023-02-01T09:21:10;5.63;;;2.05;;
54452;SDS011;40363;52.270;10.546;2023-02-01T09:23:37;9.32;;;2.15;;
54452;SDS011;40363;52.270;10.546;2023-02-01T09:26:04;11.93;;;2.08;;
54452;SDS011;40363;52.270;10.546;2023-02-01T09:28:31;12.57;;;2.63;;
54452;SDS011;40363;52.270;10.546;2023-02-01T09:31:00;8.13;;;2.28;;
54452;SDS011;40363;52.270;10.546;2023-02-01T09:33:27;10.07;;;2.25;;
54452;SDS011;40363;52.270;10.546;2023-02-01T09:35:55;5.28;;;1.65;;
54452;SDS011;40363;52.270;10.546;2023-02-01T09:38:22;5.97;;;1.90;;
54452;SDS011;40363;52.270;10.546;2023-02-01T09:40:50;6.93;;;2.00;;
54452;SDS011;40363;52.270;10.546;2023-02-01T09:43:20;7.32;;;1.90;;
54452;SDS011;40363;52.270;10.546;2023-02-01T09:45:59;6.55;;;1.92;;
54452;SDS011;40363;52.270;10.546;2023-02-01T09:48:36;6.80;;;2.10;;
54452;SDS011;40363;52.270;10.546;2023-02-01T09:51:09;5.25;;;1.73;;
54452;SDS011;40363;52.270;10.546;2023-02-01T09:53:41;6.50;;;1.73;;
54452;SDS011;40363;52.270;10.546;2023-02-01T09:56:11;4.35;;;2.03;;
54452;SDS011;40363;52.270;10.546;2023-02-01T09:58:41;8.45;;;1.38;;
54452;SDS011;40363;52.270;10.546;2023-02-01T10:01:13;8.45;;;2.60;;
54452;SDS011;40363;52.270;10.546;2023-02-01T10:03:44;3.63;;;1.75;;
54452;SDS011;40363;52.270;10.546;2023-02-01T10:06:24;10.68;;;2.13;;
54452;SDS011;40363;52.270;10.546;2023-02-01T10:09:13;9.90;;;2.40;;
54452;SDS011;40363;52.270;10.546;2023-02-01T10:11:50;10.88;;;2.30;;
54452;SDS011;40363;52.270;10.546;2023-02-01T10:14:38;6.65;;;1.80;;
54452;SDS011;40363;52.270;10.546;2023-02-01T10:17:23;8.32;;;2.45;;
54452;SDS011;40363;52.270;10.546;2023-02-01T10:19:57;7.38;;;2.58;;
54452;SDS011;40363;52.270;10.546;2023-02-01T10:22:33;8.65;;;1.92;;
54452;SDS011;40363;52.270;10.546;2023-02-01T10:25:08;6.22;;;2.05;;
54452;SDS011;40363;52.270;10.546;2023-02-01T10:27:40;6.53;;;1.80;;
54452;SDS011;40363;52.270;10.546;2023-02-01T10:30:14;11.55;;;1.75;;
54452;SDS011;40363;52.270;10.546;2023-02-01T10:32:46;8.68;;;2.17;;
54452;SDS011;40363;52.270;10.546;2023-02-01T10:35:16;9.20;;;2.63;;
54452;SDS011;40363;52.270;10.546;2023-02-01T10:37:45;13.45;;;1.77;;
54452;SDS011;40363;52.270;10.546;2023-02-01T10:40:16;8.45;;;2.30;;
54452;SDS011;40363;52.270;10.546;2023-02-01T10:42:46;12.07;;;1.93;;
54452;SDS011;40363;52.270;10.546;2023-02-01T10:45:16;7.90;;;2.15;;
54452;SDS011;40363;52.270;10.546;2023-02-01T10:47:47;7.25;;;1.30;;
54452;SDS011;40363;52.270;10.546;2023-02-01T10:50:17;9.20;;;1.83;;
54452;SDS011;40363;52.270;10.546;2023-02-01T10:52:52;10.57;;;2.08;;
54452;SDS011;40363;52.270;10.546;2023-02-01T10:55:32;14.23;;;2.33;;
54452;SDS011;40363;52.270;10.546;2023-02-01T10:58:03;5.28;;;1.65;;
54452;SDS011;40363;52.270;10.546;2023-02-01T11:00:38;5.38;;;1.80;;
54452;SDS011;40363;52.270;10.546;2023-02-01T11:06:09;8.52;;;1.77;;
54452;SDS011;40363;52.270;10.546;2023-02-01T11:08:44;9.90;;;1.92;;
54452;SDS011;40363;52.270;10.546;2023-02-01T11:11:12;7.82;;;2.15;;
54452;SDS011;40363;52.270;10.546;2023-02-01T11:13:39;7.00;;;2.20;;
54452;SDS011;40363;52.270;10.546;2023-02-01T11:16:08;7.28;;;1.48;;
54452;SDS011;40363;52.270;10.546;2023-02-01T11:18:40;5.80;;;1.58;;
54452;SDS011;40363;52.270;10.546;2023-02-01T11:21:07;8.55;;;1.80;;
54452;SDS011;40363;52.270;10.546;2023-02-01T11:23:39;12.13;;;2.80;;
54452;SDS011;40363;52.270;10.546;2023-02-01T11:26:19;14.15;;;2.70;;
54452;SDS011;40363;52.270;10.546;2023-02-01T11:28:53;13.48;;;1.98;;
54452;SDS011;40363;52.270;10.546;2023-02-01T11:31:24;9.02;;;2.17;;
54452;SDS011;40363;52.270;10.546;2023-02-01T11:33:55;8.82;;;2.15;;
54452;SDS011;40363;52.270;10.546;2023-02-01T11:36:33;4.32;;;1.88;;
54452;SDS011;40363;52.270;10.546;2023-02-01T11:39:10;8.52;;;2.40;;
54452;SDS011;40363;52.270;10.546;2023-02-01T11:41:55;5.95;;;2.08;;
54452;SDS011;40363;52.270;10.546;2023-02-01T11:44:26;7.53;;;2.58;;
54452;SDS011;40363;52.270;10.546;2023-02-01T11:47:08;8.32;;;2.30;;
54452;SDS011;40363;52.270;10.546;2023-02-01T11:49:45;4.97;;;1.33;;
54452;SDS011;40363;52.270;10.546;2023-02-01T11:52:15;4.22;;;2.17;;
54452;SDS011;40363;52.270;10.546;2023-02-01T11:54:56;15.27;;;2.67;;
54452;SDS011;40363;52.270;10.546;2023-02-01T11:57:43;5.55;;;1.98;;
54452;SDS011;40363;52.270;10.546;2023-02-01T12:00:23;17.05;;;1.77;;
54452;SDS011;40363;52.270;10.546;2023-02-01T12:03:03;6.22;;;1.90;;
54452;SDS011;40363;52.270;10.546;2023-02-01T12:05:47;10.68;;;2.13;;
54452;SDS011;40363;52.270;10.546;2023-02-01T12:08:26;3.97;;;1.73;;
54452;SDS011;40363;52.270;10.546;2023-02-01T12:11:08;6.35;;;1.98;;
54452;SDS011;40363;52.270;10.546;2023-02-01T12:14:02;9.20;;;1.92;;
54452;SDS011;40363;52.270;10.546;2023-02-01T12:16:39;8.65;;;1.95;;
54452;SDS011;40363;52.270;10.546;2023-02-01T12:19:29;7.38;;;1.50;;
54452;SDS011;40363;52.270;10.546;2023-02-01T12:22:18;9.35;;;1.55;;
54452;SDS011;40363;52.270;10.546;2023-02-01T12:25:00;12.88;;;2.92;;
54452;SDS011;40363;52.270;10.546;2023-02-01T12:27:42;10.20;;;1.52;;
54452;SDS011;40363;52.270;10.546;2023-02-01T12:30:26;11.55;;;2.85;;
54452;SDS011;40363;52.270;10.546;2023-02-01T12:33:10;11.93;;;2.35;;
54452;SDS011;40363;52.270;10.546;2023-02-01T12:35:56;11.82;;;2.35;;
54452;SDS011;40363;52.270;10.546;2023-02-01T12:38:39;2.65;;;1.52;;
54452;SDS011;40363;52.270;10.546;2023-02-01T12:41:24;6.25;;;1.83;;
54452;SDS011;40363;52.270;10.546;2023-02-01T12:44:03;9.05;;;2.00;;
54452;SDS011;40363;52.270;10.546;2023-02-01T12:46:38;11.27;;;2.78;;
54452;SDS011;40363;52.270;10.546;2023-02-01T12:49:11;12.85;;;3.53;;
54452;SDS011;40363;52.270;10.546;2023-02-01T12:51:44;6.00;;;1.48;;
54452;SDS011;40363;52.270;10.546;2023-02-01T12:54:15;6.72;;;1.92;;
54452;SDS011;40363;52.270;10.546;2023-02-01T12:56:49;3.83;;;2.07;;
54452;SDS011;40363;52.270;10.546;2023-02-01T12:59:21;12.18;;;2.00;;
54452;SDS011;40363;52.270;10.546;2023-02-01T13:01:54;6.72;;;1.95;;
54452;SDS011;40363;52.270;10.546;2023-02-01T13:04:26;4.97;;;1.83;;
54452;SDS011;40363;52.270;10.546;2023-02-01T13:07:00;8.85;;;2.20;;
54452;SDS011;40363;52.270;10.546;2023-02-01T13:09:37;8.48;;;3.03;;
54452;SDS011;40363;52.270;10.546;2023-02-01T13:14:42;14.43;;;2.05;;
54452;SDS011;40363;52.270;10.546;2023-02-01T13:17:14;7.65;;;2.58;;
54452;SDS011;40363;52.270;10.546;2023-02-01T13:19:47;3.33;;;1.38;;
54452;SDS011;40363;52.270;10.546;2023-02-01T13:22:19;5.90;;;1.70;;
54452;SDS011;40363;52.270;10.546;2023-02-01T13:24:52;9.63;;;2.08;;
54452;SDS011;40363;52.270;10.546;2023-02-01T13:27:22;6.07;;;1.77;;
54452;SDS011;40363;52.270;10.546;2023-02-01T13:29:56;6.97;;;2.28;;
54452;SDS011;40363;52.270;10.546;2023-02-01T13:32:32;3.72;;;1.77;;
54452;SDS011;40363;52.270;10.546;2023-02-01T13:35:15;5.88;;;1.95;;
54452;SDS011;40363;52.270;10.546;2023-02-01T13:38:02;6.20;;;2.63;;
54452;SDS011;40363;52.270;10.546;2023-02-01T13:40:59;5.50;;;2.03;;
54452;SDS011;40363;52.270;10.546;2023-02-01T13:43:37;5.60;;;2.03;;
54452;SDS011;40363;52.270;10.546;2023-02-01T13:46:09;8.40;;;2.42;;
54452;SDS011;40363;52.270;10.546;2023-02-01T13:48:40;10.90;;;1.58;;
54452;SDS011;40363;52.270;10.546;2023-02-01T13:51:14;7.57;;;2.55;;
54452;SDS011;40363;52.270;10.546;2023-02-01T13:53:46;2.65;;;1.67;;
54452;SDS011;40363;52.270;10.546;2023-02-01T13:56:16;3.38;;;1.17;;
54452;SDS011;40363;52.270;10.546;2023-02-01T13:58:45;4.60;;;1.60;;
54452;SDS011;40363;52.270;10.546;2023-02-01T14:01:33;5.70;;;1.85;;
54452;SDS011;40363;52.270;10.546;2023-02-01T14:06:36;5.57;;;1.20;;
54452;SDS011;40363;52.270;10.546;2023-02-01T14:09:30;4.80;;;1.35;;
54452;SDS011;40363;52.270;10.546;2023-02-01T14:15:19;0.20;;;0.20;;
54452;SDS011;40363;52.270;10.546;2023-02-01T14:17:51;1.40;;;0.45;;
54452;SDS011;40363;52.270;10.546;2023-02-01T14:23:23;0.43;;;0.40;;
54452;SDS011;40363;52.270;10.546;2023-02-01T14:28:50;0.65;;;0.60;;
54452;SDS011;40363;52.270;10.546;2023-02-01T14:34:36;1.30;;;0.30;;
54452;SDS011;40363;52.270;10.546;2023-02-01T14:37:13;0.93;;;0.40;;
54452;SDS011;40363;52.270;10.546;2023-02-01T14:39:54;0.35;;;0.20;;
54452;SDS011;40363;52.270;10.546;2023-02-01T14:42:24;0.68;;;0.40;;
54452;SDS011;40363;52.270;10.546;2023-02-01T14:44:54;0.65;;;0.40;;
54452;SDS011;40363;52.270;10.546;2023-02-01T14:47:32;0.65;;;0.20;;
54452;SDS011;40363;52.270;10.546;2023-02-01T14:55:56;1.17;;;0.68;;
54452;SDS011;40363;52.270;10.546;2023-02-01T14:58:32;1.30;;;0.40;;
54452;SDS011;40363;52.270;10.546;2023-02-01T15:01:04;3.08;;;0.47;;
54452;SDS011;40363;52.270;10.546;2023-02-01T15:03:41;4.40;;;0.38;;
54452;SDS011;40363;52.270;10.546;2023-02-01T15:06:25;1.92;;;0.88;;
54452;SDS011;40363;52.270;10.546;2023-02-01T15:08:56;1.25;;;0.35;;
54452;SDS011;40363;52.270;10.546;2023-02-01T15:11:25;0.57;;;0.30;;
54452;SDS011;40363;52.270;10.546;2023-02-01T15:13:52;1.73;;;0.63;;
54452;SDS011;40363;52.270;10.546;2023-02-01T15:16:22;0.82;;;0.50;;
54452;SDS011;40363;52.270;10.546;2023-02-01T15:18:50;0.95;;;0.40;;
54452;SDS011;40363;52.270;10.546;2023-02-01T15:21:17;0.70;;;0.57;;
54452;SDS011;40363;52.270;10.546;2023-02-01T15:23:47;1.05;;;0.40;;
54452;SDS011;40363;52.270;10.546;2023-02-01T15:26:25;0.50;;;0.40;;